createdAt,value
2022-08-17T00:01:51.982Z,22.61
2022-08-17T00:04:21.490Z,22.49
2022-08-17T00:06:53.333Z,22.27
2022-08-17T00:09:21.469Z,22.18
2022-08-17T00:12:40.764Z,22.15
2022-08-17T00:14:38.825Z,22.23
2022-08-17T00:17:07.075Z,22.14
2022-08-17T00:19:35.203Z,22.01
2022-08-17T00:22:32.177Z,21.95
2022-08-17T00:24:55.370Z,21.90
2022-08-17T00:27:23.585Z,21.76
2022-08-17T00:29:52.156Z,21.79
2022-08-17T00:33:15.526Z,21.86
2022-08-17T00:35:11.203Z,21.82
2022-08-17T00:37:41.406Z,21.76
2022-08-17T00:40:12.288Z,21.63
2022-08-17T00:42:41.005Z,21.66
2022-08-17T00:45:12.206Z,21.59
2022-08-17T00:47:40.795Z,21.58
2022-08-17T00:50:11.778Z,21.58
2022-08-17T00:52:54.811Z,21.57
2022-08-17T00:55:24.118Z,21.59
2022-08-17T00:57:56.601Z,21.66
2022-08-17T01:00:27.523Z,21.53
2022-08-17T01:03:00.244Z,21.39
2022-08-17T01:05:32.005Z,21.29
2022-08-17T01:08:02.918Z,21.38
2022-08-17T01:10:58.384Z,21.35
2022-08-17T01:13:27.745Z,21.26
2022-08-17T01:16:00.431Z,21.21
2022-08-17T01:18:29.203Z,21.14
2022-08-17T01:20:59.815Z,21.14
2022-08-17T01:23:29.874Z,21.25
2022-08-17T01:25:59.876Z,21.36
2022-08-17T01:28:33.336Z,21.43
2022-08-17T01:31:19.751Z,21.47
2022-08-17T01:33:47.879Z,21.47
2022-08-17T01:36:16.062Z,21.50
2022-08-17T01:38:45.558Z,21.54
2022-08-17T01:41:18.056Z,21.52
2022-08-17T01:43:50.880Z,21.45
2022-08-17T01:46:24.378Z,21.41
2022-08-17T01:48:52.652Z,21.41
2022-08-17T01:51:21.710Z,21.45
2022-08-17T01:53:55.490Z,21.40
2022-08-17T01:56:24.512Z,21.23
2022-08-17T01:58:53.565Z,21.26
2022-08-17T02:01:24.613Z,21.28
2022-08-17T02:03:56.304Z,21.27
2022-08-17T02:06:31.338Z,21.28
2022-08-17T02:09:03.852Z,21.28
2022-08-17T02:11:34.316Z,21.25
2022-08-17T02:14:04.096Z,21.20
2022-08-17T02:16:36.961Z,21.00
2022-08-17T02:19:08.613Z,20.94
2022-08-17T02:21:37.499Z,20.96
2022-08-17T02:24:09.432Z,20.91
2022-08-17T02:26:37.987Z,20.90
2022-08-17T02:29:07.286Z,20.74
2022-08-17T02:31:35.651Z,20.74
2022-08-17T02:34:05.339Z,20.74
2022-08-17T02:36:35.292Z,20.77
2022-08-17T02:39:04.988Z,20.75
2022-08-17T02:41:34.867Z,20.84
2022-08-17T02:44:03.020Z,20.92
2022-08-17T02:46:32.334Z,20.83
2022-08-17T02:49:00.473Z,20.81
2022-08-17T02:51:28.898Z,20.81
2022-08-17T02:54:38.930Z,20.81
2022-08-17T02:56:46.983Z,20.81
2022-08-17T02:59:15.105Z,20.85
2022-08-17T03:01:43.271Z,20.90
2022-08-17T03:04:11.785Z,20.88
2022-08-17T03:06:39.886Z,20.55
2022-08-17T03:09:08.153Z,20.41
2022-08-17T03:11:36.405Z,20.34
2022-08-17T03:14:05.937Z,20.28
2022-08-17T03:16:34.055Z,20.35
2022-08-17T03:19:02.910Z,20.48
2022-08-17T03:21:31.064Z,20.56
2022-08-17T03:23:59.264Z,20.55
2022-08-17T03:26:29.637Z,20.54
2022-08-17T03:28:58.154Z,20.50
2022-08-17T03:31:27.698Z,20.46
2022-08-17T03:33:56.452Z,20.50
2022-08-17T03:36:24.844Z,20.53
2022-08-17T03:38:53.131Z,20.42
2022-08-17T03:41:23.021Z,20.28
2022-08-17T03:43:51.340Z,20.16
2022-08-17T03:46:37.084Z,20.13
2022-08-17T03:49:25.854Z,20.02
2022-08-17T03:52:12.097Z,20.10
2022-08-17T03:54:58.245Z,20.15
2022-08-17T03:57:26.942Z,20.25
2022-08-17T03:59:56.160Z,20.29
2022-08-17T04:02:29.418Z,20.20
2022-08-17T04:05:00.037Z,20.17
2022-08-17T04:07:30.855Z,20.22
2022-08-17T04:09:59.573Z,20.23
2022-08-17T04:12:30.869Z,20.18
2022-08-17T04:14:59.443Z,20.16
2022-08-17T04:17:29.866Z,20.16
2022-08-17T04:19:59.326Z,20.04
2022-08-17T04:22:33.203Z,20.22
2022-08-17T04:25:05.342Z,20.37
2022-08-17T04:27:33.645Z,20.44
2022-08-17T04:30:01.906Z,20.51
2022-08-17T04:33:00.439Z,20.61
2022-08-17T04:35:22.914Z,20.68
2022-08-17T04:37:51.464Z,20.71
2022-08-17T04:40:52.770Z,20.78
2022-08-17T04:43:22.250Z,20.75
2022-08-17T04:45:56.137Z,20.75
2022-08-17T04:48:34.764Z,20.80
2022-08-17T04:51:09.863Z,20.90
2022-08-17T04:53:39.556Z,20.96
2022-08-17T04:56:15.923Z,20.98
2022-08-17T04:58:45.633Z,20.99
2022-08-17T05:01:14.036Z,21.05
2022-08-17T05:03:42.865Z,21.15
2022-08-17T05:06:12.514Z,21.22
2022-08-17T05:08:40.690Z,21.30
2022-08-17T05:11:09.310Z,21.39
2022-08-17T05:13:37.483Z,21.50
2022-08-17T05:16:06.660Z,21.60
2022-08-17T05:18:34.879Z,21.70
2022-08-17T05:21:03.826Z,21.79
2022-08-17T05:23:42.712Z,21.88
2022-08-17T05:26:23.148Z,21.97
2022-08-17T05:28:57.194Z,22.06
2022-08-17T05:31:28.081Z,22.12
2022-08-17T05:33:56.230Z,22.20
2022-08-17T05:36:41.743Z,22.29
2022-08-17T05:39:16.858Z,22.37
2022-08-17T05:41:47.448Z,22.43
2022-08-17T05:44:15.825Z,22.50
2022-08-17T05:46:49.946Z,22.63
2022-08-17T05:49:20.500Z,22.71
2022-08-17T05:52:24.673Z,22.79
2022-08-17T05:55:11.401Z,22.94
2022-08-17T05:58:01.059Z,23.05
2022-08-17T06:00:42.031Z,23.13
2022-08-17T06:03:47.582Z,23.23
2022-08-17T06:06:31.959Z,23.45
2022-08-17T06:09:22.932Z,23.91
2022-08-17T06:12:01.237Z,23.94
2022-08-17T06:14:47.248Z,23.86
2022-08-17T06:17:20.078Z,23.91
2022-08-17T06:19:54.609Z,23.98
2022-08-17T06:22:25.746Z,24.05
2022-08-17T06:24:59.037Z,24.04
2022-08-17T06:27:35.694Z,24.12
2022-08-17T06:30:10.034Z,24.15
2022-08-17T06:32:40.616Z,24.22
2022-08-17T06:35:12.113Z,24.34
2022-08-17T06:37:59.516Z,24.47
2022-08-17T06:40:52.390Z,24.61
2022-08-17T06:43:48.003Z,24.74
2022-08-17T06:46:23.054Z,24.85
2022-08-17T06:49:08.028Z,24.94
2022-08-17T06:51:41.847Z,25.01
2022-08-17T06:54:15.493Z,25.07
2022-08-17T06:56:54.171Z,25.17
2022-08-17T06:59:53.177Z,25.21
2022-08-17T07:02:29.390Z,25.30
2022-08-17T07:05:14.326Z,25.37
2022-08-17T07:08:02.764Z,25.48
2022-08-17T07:10:36.443Z,25.59
2022-08-17T07:13:18.203Z,25.67
2022-08-17T07:15:54.017Z,25.76
2022-08-17T07:18:27.906Z,25.86
2022-08-17T07:21:07.652Z,25.95
2022-08-17T07:23:48.734Z,26.00
2022-08-17T07:26:16.980Z,26.07
2022-08-17T07:28:45.875Z,26.14
2022-08-17T07:31:17.303Z,26.18
2022-08-17T07:34:02.270Z,26.29
2022-08-17T07:36:33.913Z,26.42
2022-08-17T07:39:03.429Z,26.54
2022-08-17T07:41:53.053Z,26.67
2022-08-17T07:44:26.227Z,26.74
2022-08-17T07:47:14.434Z,26.79
2022-08-17T07:49:46.115Z,26.84
2022-08-17T07:52:50.752Z,26.91
2022-08-17T07:55:34.918Z,27.05
2022-08-17T07:58:03.687Z,27.16
2022-08-17T08:00:33.663Z,27.18
2022-08-17T08:03:13.369Z,27.23
2022-08-17T08:05:51.108Z,27.30
2022-08-17T08:08:28.227Z,27.38
2022-08-17T08:11:04.273Z,27.49
2022-08-17T08:13:33.635Z,27.62
2022-08-17T08:16:24.426Z,27.77
2022-08-17T08:18:57.753Z,27.78
2022-08-17T08:21:37.508Z,27.81
2022-08-17T08:24:25.885Z,27.82
2022-08-17T08:27:11.673Z,27.90
2022-08-17T08:29:49.576Z,28.00
2022-08-17T08:32:28.073Z,28.09
2022-08-17T08:35:04.904Z,28.20
2022-08-17T08:37:44.316Z,28.26
2022-08-17T08:40:34.592Z,28.33
2022-08-17T08:43:16.541Z,28.42
2022-08-17T08:45:52.723Z,28.53
2022-08-17T08:48:53.408Z,28.66
2022-08-17T08:51:39.221Z,28.78
2022-08-17T08:54:26.977Z,28.87
2022-08-17T08:57:28.046Z,28.96
2022-08-17T09:00:08.680Z,29.09
2022-08-17T09:03:28.073Z,29.17
2022-08-17T09:06:39.158Z,29.28
2022-08-17T09:09:20.382Z,29.38
2022-08-17T09:12:02.963Z,29.55
2022-08-17T09:14:45.000Z,29.67
2022-08-17T09:17:20.328Z,29.71
2022-08-17T09:19:50.816Z,29.77
2022-08-17T09:22:31.633Z,29.93
2022-08-17T09:25:06.916Z,30.01
2022-08-17T09:27:51.028Z,30.10
2022-08-17T09:30:19.834Z,30.28
2022-08-17T09:32:52.170Z,30.33
2022-08-17T09:35:25.179Z,30.42
2022-08-17T09:38:16.076Z,30.57
2022-08-17T09:40:51.690Z,30.74
2022-08-17T09:43:28.895Z,30.94
2022-08-17T09:46:01.962Z,31.01
2022-08-17T09:48:33.258Z,31.09
2022-08-17T09:51:07.068Z,31.09
2022-08-17T09:53:38.654Z,31.06
2022-08-17T09:56:27.215Z,31.03
2022-08-17T09:59:11.265Z,31.20
2022-08-17T10:01:44.110Z,31.07
2022-08-17T10:04:33.838Z,31.01
2022-08-17T10:07:11.219Z,30.90
2022-08-17T10:09:55.728Z,30.69
2022-08-17T10:12:35.253Z,30.94
2022-08-17T10:15:17.327Z,31.02
2022-08-17T10:17:56.465Z,30.91
2022-08-17T10:20:30.652Z,31.06
2022-08-17T10:23:19.997Z,31.16
2022-08-17T10:26:10.368Z,31.36
2022-08-17T10:28:44.046Z,31.51
2022-08-17T10:31:34.161Z,31.56
2022-08-17T10:34:36.160Z,31.75
2022-08-17T10:37:26.297Z,31.59
2022-08-17T10:40:08.711Z,31.58
2022-08-17T10:42:48.926Z,31.75
2022-08-17T10:45:26.337Z,32.02
2022-08-17T10:48:04.711Z,32.12
2022-08-17T10:50:50.299Z,32.30
2022-08-17T10:53:56.271Z,32.46
2022-08-17T10:56:39.486Z,32.45
2022-08-17T10:59:08.851Z,32.39
2022-08-17T11:02:05.400Z,32.30
2022-08-17T11:04:49.954Z,32.40
2022-08-17T11:07:27.963Z,32.56
2022-08-17T11:10:19.921Z,32.68
2022-08-17T11:12:55.508Z,32.68
2022-08-17T11:15:43.098Z,32.62
2022-08-17T11:18:36.566Z,32.79
2022-08-17T11:21:23.149Z,32.83
2022-08-17T11:24:16.612Z,32.82
2022-08-17T11:26:48.859Z,33.10
2022-08-17T11:29:24.812Z,33.22
2022-08-17T11:32:06.107Z,33.40
2022-08-17T11:34:35.151Z,33.45
2022-08-17T11:37:37.327Z,33.18
2022-08-17T11:40:32.372Z,32.73
2022-08-17T11:43:33.143Z,32.81
2022-08-17T11:46:14.367Z,33.18
2022-08-17T11:49:08.225Z,33.05
2022-08-17T11:52:11.718Z,32.79
2022-08-17T11:54:45.276Z,32.70
2022-08-17T11:58:01.008Z,32.58
2022-08-17T12:00:51.453Z,32.68
2022-08-17T12:03:53.996Z,32.96
2022-08-17T12:06:35.929Z,33.23
2022-08-17T12:09:12.079Z,33.43
2022-08-17T12:12:11.202Z,33.44
2022-08-17T12:15:05.975Z,33.42
2022-08-17T12:17:41.550Z,33.21
2022-08-17T12:20:16.374Z,33.11
2022-08-17T12:22:56.586Z,33.01
2022-08-17T12:25:31.464Z,33.34
2022-08-17T12:28:06.139Z,33.96
2022-08-17T12:30:37.008Z,34.37
2022-08-17T12:33:12.584Z,34.70
2022-08-17T12:35:43.304Z,35.06
2022-08-17T12:38:32.081Z,35.42
2022-08-17T12:41:24.538Z,35.04
2022-08-17T12:44:01.648Z,35.09
2022-08-17T12:46:33.704Z,35.33
2022-08-17T12:49:16.471Z,35.54
2022-08-17T12:51:47.976Z,35.82
2022-08-17T12:54:26.377Z,35.58
2022-08-17T12:56:55.633Z,35.39
2022-08-17T12:59:30.087Z,34.97
2022-08-17T13:01:59.182Z,34.75
2022-08-17T13:04:29.534Z,34.89
2022-08-17T13:06:59.974Z,35.14
2022-08-17T13:09:35.389Z,35.55
2022-08-17T13:12:09.003Z,35.88
2022-08-17T13:14:37.230Z,35.84
2022-08-17T13:17:11.055Z,35.44
2022-08-17T13:19:49.543Z,35.07
2022-08-17T13:22:24.010Z,35.25
2022-08-17T13:24:55.438Z,36.05
2022-08-17T13:27:25.990Z,36.49
2022-08-17T13:29:57.588Z,36.63
2022-08-17T13:32:43.009Z,36.99
2022-08-17T13:35:39.604Z,37.27
2022-08-17T13:38:12.845Z,37.60
2022-08-17T13:40:43.121Z,37.70
2022-08-17T13:43:12.168Z,37.63
2022-08-17T13:46:09.259Z,37.51
2022-08-17T13:48:37.652Z,37.41
2022-08-17T13:51:31.757Z,37.77
2022-08-17T13:54:06.529Z,37.83
2022-08-17T13:56:40.991Z,38.02
2022-08-17T13:59:12.540Z,38.05
2022-08-17T14:01:43.192Z,37.68
2022-08-17T14:04:15.255Z,37.20
2022-08-17T14:06:52.217Z,37.46
2022-08-17T14:09:25.604Z,37.79
2022-08-17T14:11:55.160Z,38.03
2022-08-17T14:14:24.241Z,37.90
2022-08-17T14:16:52.966Z,37.81
2022-08-17T14:19:22.320Z,37.67
2022-08-17T14:21:51.317Z,38.09
2022-08-17T14:24:26.602Z,38.39
2022-08-17T14:26:55.961Z,38.62
2022-08-17T14:29:25.970Z,38.30
2022-08-17T14:31:54.786Z,38.62
2022-08-17T14:34:23.791Z,38.80
2022-08-17T14:36:52.213Z,39.29
2022-08-17T14:39:21.357Z,39.75
2022-08-17T14:41:53.038Z,39.90
2022-08-17T14:44:21.152Z,40.28
2022-08-17T14:46:50.516Z,40.15
2022-08-17T14:49:20.725Z,39.57
2022-08-17T14:51:48.979Z,39.47
2022-08-17T14:54:33.693Z,39.60
2022-08-17T14:57:23.664Z,39.97
2022-08-17T14:59:55.916Z,39.73
2022-08-17T15:02:29.176Z,40.05
2022-08-17T15:05:00.567Z,39.89
2022-08-17T15:07:30.892Z,40.14
2022-08-17T15:10:00.903Z,39.79
2022-08-17T15:12:33.600Z,40.00
2022-08-17T15:15:04.866Z,39.92
2022-08-17T15:17:44.375Z,39.97
2022-08-17T15:20:15.402Z,39.95
2022-08-17T15:22:45.594Z,40.03
2022-08-17T15:25:14.696Z,40.28
2022-08-17T15:27:44.233Z,40.07
2022-08-17T15:30:13.336Z,40.42
2022-08-17T15:32:51.196Z,40.99
2022-08-17T15:35:27.908Z,41.40
2022-08-17T15:37:58.387Z,41.10
2022-08-17T15:40:26.783Z,40.95
2022-08-17T15:42:57.892Z,41.76
2022-08-17T15:45:28.363Z,40.66
2022-08-17T15:47:56.511Z,40.37
2022-08-17T15:50:24.724Z,40.63
2022-08-17T15:52:58.370Z,40.86
2022-08-17T15:55:28.945Z,41.28
2022-08-17T15:57:58.976Z,41.68
2022-08-17T16:00:28.537Z,41.93
2022-08-17T16:03:47.144Z,41.91
2022-08-17T16:05:50.254Z,41.63
2022-08-17T16:08:21.251Z,40.98
2022-08-17T16:10:50.072Z,41.29
2022-08-17T16:13:20.481Z,41.23
2022-08-17T16:15:57.252Z,40.95
2022-08-17T16:18:31.056Z,39.20
2022-08-17T16:21:20.587Z,38.28
2022-08-17T16:23:49.257Z,37.28
2022-08-17T16:26:18.068Z,36.42
2022-08-17T16:28:48.243Z,36.33
2022-08-17T16:31:16.672Z,36.25
2022-08-17T16:33:58.429Z,36.14
2022-08-17T16:36:34.108Z,35.98
2022-08-17T16:39:02.506Z,35.99
2022-08-17T16:41:45.568Z,35.81
2022-08-17T16:44:16.679Z,35.74
2022-08-17T16:46:46.193Z,35.51
2022-08-17T16:49:35.169Z,35.48
2022-08-17T16:52:04.319Z,35.30
2022-08-17T16:54:32.667Z,35.34
2022-08-17T16:57:00.788Z,35.32
2022-08-17T16:59:39.652Z,35.09
2022-08-17T17:02:12.198Z,35.10
2022-08-17T17:04:47.518Z,35.11
2022-08-17T17:07:44.869Z,35.04
2022-08-17T17:10:16.369Z,34.95
2022-08-17T17:13:01.350Z,34.98
2022-08-17T17:15:47.443Z,34.80
2022-08-17T17:18:17.146Z,34.60
2022-08-17T17:20:50.821Z,34.53
2022-08-17T17:23:48.396Z,34.47
2022-08-17T17:26:28.965Z,34.38
2022-08-17T17:29:06.325Z,34.30
2022-08-17T17:31:42.374Z,34.19
2022-08-17T17:34:15.947Z,34.03
2022-08-17T17:36:48.689Z,33.95
2022-08-17T17:39:20.107Z,33.83
2022-08-17T17:41:54.217Z,33.69
2022-08-17T17:44:28.423Z,33.58
2022-08-17T17:47:00.465Z,33.42
2022-08-17T17:49:31.994Z,33.27
2022-08-17T17:52:14.231Z,33.15
2022-08-17T17:54:59.743Z,32.99
2022-08-17T17:57:40.536Z,32.81
2022-08-17T18:00:14.972Z,32.69
2022-08-17T18:03:02.499Z,32.55
2022-08-17T18:05:48.755Z,32.41
2022-08-17T18:08:34.998Z,32.27
2022-08-17T18:11:14.277Z,32.15
2022-08-17T18:14:06.782Z,31.83
2022-08-17T18:16:35.923Z,31.74
2022-08-17T18:19:07.180Z,31.62
2022-08-17T18:21:39.477Z,31.47
2022-08-17T18:24:10.556Z,31.33
2022-08-17T18:26:57.747Z,31.25
2022-08-17T18:29:32.457Z,31.15
2022-08-17T18:32:40.033Z,30.87
2022-08-17T18:35:35.226Z,30.91
2022-08-17T18:38:22.513Z,30.91
2022-08-17T18:41:00.765Z,30.92
2022-08-17T18:43:43.789Z,30.84
2022-08-17T18:46:28.876Z,30.83
2022-08-17T18:49:00.088Z,30.79
2022-08-17T18:51:40.975Z,30.82
2022-08-17T18:54:20.565Z,30.82
2022-08-17T18:56:56.717Z,30.84
2022-08-17T18:59:29.514Z,30.78
2022-08-17T19:02:34.547Z,30.76
2022-08-17T19:05:13.381Z,30.69
2022-08-17T19:07:45.251Z,30.69
2022-08-17T19:10:22.423Z,30.59
2022-08-17T19:13:00.758Z,30.58
2022-08-17T19:15:35.811Z,30.48
2022-08-17T19:18:15.140Z,30.36
2022-08-17T19:20:48.774Z,30.32
2022-08-17T19:23:25.210Z,30.07
2022-08-17T19:25:58.433Z,29.89
2022-08-17T19:28:28.976Z,29.52
2022-08-17T19:30:59.460Z,29.49
2022-08-17T19:33:28.175Z,29.51
2022-08-17T19:36:06.982Z,29.50
2022-08-17T19:38:43.421Z,29.31
2022-08-17T19:41:20.421Z,29.19
2022-08-17T19:44:07.809Z,29.04
2022-08-17T19:46:49.909Z,28.84
2022-08-17T19:49:40.525Z,28.96
2022-08-17T19:52:36.319Z,28.99
2022-08-17T19:55:19.792Z,29.14
2022-08-17T19:58:00.786Z,29.17
2022-08-17T20:00:31.242Z,29.07
2022-08-17T20:03:06.388Z,28.96
2022-08-17T20:06:08.677Z,28.81
2022-08-17T20:08:30.529Z,28.65
2022-08-17T20:11:04.332Z,28.34
2022-08-17T20:13:37.024Z,28.43
2022-08-17T20:16:06.218Z,28.32
2022-08-17T20:18:47.626Z,28.28
2022-08-17T20:21:20.660Z,28.06
2022-08-17T20:23:56.502Z,27.93
2022-08-17T20:26:35.254Z,27.71
2022-08-17T20:29:10.796Z,27.52
2022-08-17T20:31:49.049Z,27.50
2022-08-17T20:34:36.785Z,27.45
2022-08-17T20:37:09.634Z,27.40
2022-08-17T20:39:43.181Z,27.26
2022-08-17T20:42:32.397Z,27.39
2022-08-17T20:45:05.385Z,27.49
2022-08-17T20:47:36.870Z,27.57
2022-08-17T20:50:08.090Z,27.37
2022-08-17T20:52:46.855Z,27.18
2022-08-17T20:55:53.291Z,27.22
2022-08-17T20:58:47.740Z,27.06
2022-08-17T21:01:24.460Z,26.75
2022-08-17T21:03:54.239Z,26.63
2022-08-17T21:06:26.075Z,26.53
2022-08-17T21:09:19.205Z,26.46
2022-08-17T21:12:04.647Z,26.58
2022-08-17T21:14:58.163Z,26.66
2022-08-17T21:17:49.886Z,26.48
2022-08-17T21:20:33.906Z,26.55
2022-08-17T21:23:23.805Z,26.58
2022-08-17T21:26:05.558Z,26.58
2022-08-17T21:28:59.872Z,26.47
2022-08-17T21:31:34.509Z,26.10
2022-08-17T21:34:27.169Z,25.84
2022-08-17T21:36:56.896Z,25.69
2022-08-17T21:39:33.240Z,25.57
2022-08-17T21:42:01.940Z,25.61
2022-08-17T21:44:35.046Z,25.62
2022-08-17T21:47:23.629Z,25.73
2022-08-17T21:49:52.286Z,25.80
2022-08-17T21:52:23.841Z,25.83
2022-08-17T21:54:57.093Z,25.81
2022-08-17T21:57:28.297Z,25.78
2022-08-17T21:59:59.748Z,25.73
2022-08-17T22:02:33.499Z,25.67
2022-08-17T22:05:03.562Z,25.67
2022-08-17T22:07:38.159Z,25.62
2022-08-17T22:10:08.087Z,25.41
2022-08-17T22:12:36.560Z,25.36
2022-08-17T22:15:07.523Z,25.48
2022-08-17T22:17:41.212Z,25.57
2022-08-17T22:20:14.580Z,25.55
2022-08-17T22:23:25.326Z,25.34
2022-08-17T22:26:02.269Z,25.31
2022-08-17T22:28:38.968Z,25.30
2022-08-17T22:31:08.628Z,25.30
2022-08-17T22:33:41.972Z,25.16
2022-08-17T22:36:24.642Z,25.17
2022-08-17T22:38:55.114Z,25.20
2022-08-17T22:41:37.309Z,25.27
2022-08-17T22:44:16.421Z,25.29
2022-08-17T22:47:01.943Z,25.24
2022-08-17T22:49:36.880Z,25.05
2022-08-17T22:52:31.558Z,24.99
2022-08-17T22:55:30.668Z,24.87
2022-08-17T22:58:16.495Z,24.90
2022-08-17T23:00:47.711Z,24.79
2022-08-17T23:03:19.405Z,24.79
2022-08-17T23:06:03.783Z,24.70
2022-08-17T23:08:34.596Z,24.78
2022-08-17T23:11:02.992Z,24.80
2022-08-17T23:13:33.509Z,24.68
2022-08-17T23:16:02.459Z,24.54
2022-08-17T23:18:30.592Z,24.48
2022-08-17T23:21:01.301Z,24.42
2022-08-17T23:23:31.373Z,24.40
2022-08-17T23:25:59.482Z,24.45
2022-08-17T23:28:28.546Z,24.45
2022-08-17T23:30:56.688Z,24.51
2022-08-17T23:33:30.992Z,24.54
2022-08-17T23:36:00.522Z,24.41
2022-08-17T23:38:29.274Z,24.36
2022-08-17T23:41:00.032Z,24.35
2022-08-17T23:43:29.840Z,24.30
2022-08-17T23:45:59.794Z,24.32
2022-08-17T23:48:36.636Z,24.31
2022-08-17T23:51:13.640Z,24.40
2022-08-17T23:53:46.402Z,24.44
2022-08-17T23:56:15.600Z,24.46
2022-08-17T23:58:45.122Z,24.46
